createdAt,value
2024-03-27T00:00:15.643Z,993.47
2024-03-27T00:00:46.575Z,993.47
2024-03-27T00:01:17.504Z,993.49
2024-03-27T00:01:48.634Z,993.50
2024-03-27T00:02:19.046Z,993.52
2024-03-27T00:02:49.915Z,993.55
2024-03-27T00:03:20.842Z,993.57
2024-03-27T00:03:51.992Z,993.56
2024-03-27T00:04:22.402Z,993.53
2024-03-27T00:04:53.327Z,993.48
2024-03-27T00:05:24.142Z,993.44
2024-03-27T00:05:55.063Z,993.44
2024-03-27T00:06:25.998Z,993.47
2024-03-27T00:06:56.898Z,993.51
2024-03-27T00:07:27.798Z,993.52
2024-03-27T00:07:58.729Z,993.51
2024-03-27T00:08:29.632Z,993.49
2024-03-27T00:08:59.495Z,993.47
2024-03-27T00:09:31.422Z,993.47
2024-03-27T00:10:02.363Z,993.45
2024-03-27T00:10:33.291Z,993.43
2024-03-27T00:11:04.223Z,993.40
2024-03-27T00:11:35.170Z,993.38
2024-03-27T00:12:06.108Z,993.37
2024-03-27T00:12:37.029Z,993.37
2024-03-27T00:13:07.964Z,993.37
2024-03-27T00:13:38.900Z,993.36
2024-03-27T00:14:40.639Z,993.32
2024-03-27T00:15:11.577Z,993.31
2024-03-27T00:15:42.499Z,993.31
2024-03-27T00:16:13.526Z,993.31
2024-03-27T00:16:43.950Z,993.29
2024-03-27T00:17:14.973Z,993.28
2024-03-27T00:17:45.408Z,993.25
2024-03-27T00:18:16.318Z,993.22
2024-03-27T00:18:47.251Z,993.19
2024-03-27T00:19:18.167Z,993.18
2024-03-27T00:19:49.086Z,993.19
2024-03-27T00:20:19.989Z,993.20
2024-03-27T00:20:50.913Z,993.19
2024-03-27T00:21:21.885Z,993.16
2024-03-27T00:21:52.851Z,993.13
2024-03-27T00:22:23.635Z,993.12
2024-03-27T00:22:54.563Z,993.11
2024-03-27T00:23:25.379Z,993.11
2024-03-27T00:23:56.294Z,993.13
2024-03-27T00:24:25.811Z,993.13
2024-03-27T00:24:57.710Z,993.12
2024-03-27T00:25:28.625Z,993.12
2024-03-27T00:25:59.521Z,993.12
2024-03-27T00:26:30.449Z,993.11
2024-03-27T00:27:32.072Z,993.06
2024-03-27T00:28:02.731Z,993.04
2024-03-27T00:28:33.338Z,993.04
2024-03-27T00:29:04.466Z,993.04
2024-03-27T00:29:34.871Z,993.06
2024-03-27T00:30:05.797Z,993.06
2024-03-27T00:30:36.700Z,993.05
2024-03-27T00:31:07.615Z,993.04
2024-03-27T00:31:38.527Z,993.02
2024-03-27T00:32:09.427Z,993.02
2024-03-27T00:32:40.387Z,993.02
2024-03-27T00:33:11.332Z,993.00
2024-03-27T00:33:42.152Z,992.98
2024-03-27T00:34:13.076Z,992.96
2024-03-27T00:34:43.989Z,992.94
2024-03-27T00:35:14.966Z,992.93
2024-03-27T00:35:45.898Z,992.93
2024-03-27T00:36:16.854Z,992.92
2024-03-27T00:36:47.775Z,992.91
2024-03-27T00:37:18.673Z,992.90
2024-03-27T00:37:49.787Z,992.88
2024-03-27T00:38:20.196Z,992.86
2024-03-27T00:38:51.113Z,992.85
2024-03-27T00:39:22.025Z,992.84
2024-03-27T00:39:52.939Z,992.83
2024-03-27T00:40:23.846Z,992.82
2024-03-27T00:40:54.816Z,992.82
2024-03-27T00:41:25.713Z,992.81
2024-03-27T00:41:56.651Z,992.79
2024-03-27T00:42:27.573Z,992.76
2024-03-27T00:42:58.497Z,992.74
2024-03-27T00:43:29.417Z,992.71
2024-03-27T00:44:00.375Z,992.69
2024-03-27T00:44:31.167Z,992.68
2024-03-27T00:45:02.093Z,992.69
2024-03-27T00:45:32.901Z,992.70
2024-03-27T00:46:03.718Z,992.72
2024-03-27T00:46:34.642Z,992.73
2024-03-27T00:47:05.575Z,992.73
2024-03-27T00:47:36.508Z,992.73
2024-03-27T00:48:07.423Z,992.73
2024-03-27T00:48:38.336Z,992.73
2024-03-27T00:49:09.253Z,992.74
2024-03-27T00:49:40.187Z,992.75
2024-03-27T00:50:09.936Z,992.75
2024-03-27T00:50:41.850Z,992.74
2024-03-27T00:51:12.749Z,992.73
2024-03-27T00:51:43.717Z,992.72
2024-03-27T00:52:14.636Z,992.71
2024-03-27T00:53:16.477Z,992.66
2024-03-27T00:53:45.998Z,992.65
2024-03-27T00:54:17.934Z,992.63
2024-03-27T00:54:48.859Z,992.61
2024-03-27T00:55:18.471Z,992.61
2024-03-27T00:55:50.282Z,992.60
2024-03-27T00:56:21.196Z,992.60
2024-03-27T00:56:50.803Z,992.60
2024-03-27T00:57:21.425Z,992.59
2024-03-27T00:57:53.238Z,992.59
2024-03-27T00:58:24.169Z,992.60
2024-03-27T00:58:55.114Z,992.60
2024-03-27T00:59:24.748Z,992.59
2024-03-27T00:59:55.416Z,992.58
2024-03-27T01:00:27.269Z,992.58
2024-03-27T01:01:29.162Z,992.57
2024-03-27T01:01:58.800Z,992.56
2024-03-27T01:02:29.438Z,992.55
2024-03-27T01:03:01.363Z,992.54
2024-03-27T01:03:32.161Z,992.54
2024-03-27T01:04:01.783Z,992.53
2024-03-27T01:04:33.712Z,992.53
2024-03-27T01:05:04.620Z,992.52
2024-03-27T01:05:34.251Z,992.52
2024-03-27T01:06:06.167Z,992.51
2024-03-27T01:06:37.079Z,992.50
2024-03-27T01:07:07.988Z,992.49
2024-03-27T01:07:38.811Z,992.47
2024-03-27T01:08:09.758Z,992.46
2024-03-27T01:08:42.995Z,992.44
2024-03-27T01:09:11.359Z,992.43
2024-03-27T01:09:42.298Z,992.42
2024-03-27T01:10:13.783Z,992.41
2024-03-27T01:10:43.850Z,992.41
2024-03-27T01:11:14.752Z,992.41
2024-03-27T01:11:45.660Z,992.40
2024-03-27T01:12:15.263Z,992.40
2024-03-27T01:12:47.199Z,992.41
2024-03-27T01:13:18.114Z,992.41
2024-03-27T01:13:49.031Z,992.41
2024-03-27T01:14:19.954Z,992.41
2024-03-27T01:14:49.576Z,992.41
2024-03-27T01:15:21.548Z,992.40
2024-03-27T01:15:52.590Z,992.40
2024-03-27T01:16:22.974Z,992.39
2024-03-27T01:16:53.888Z,992.38
2024-03-27T01:17:24.811Z,992.37
2024-03-27T01:17:56.943Z,992.36
2024-03-27T01:18:26.367Z,992.36
2024-03-27T01:18:57.267Z,992.35
2024-03-27T01:19:28.082Z,992.34
2024-03-27T01:19:59.047Z,992.32
2024-03-27T01:20:30.142Z,992.30
2024-03-27T01:21:00.769Z,992.29
2024-03-27T01:21:31.681Z,992.27
2024-03-27T01:22:02.617Z,992.25
2024-03-27T01:22:33.591Z,992.22
2024-03-27T01:23:04.513Z,992.20
2024-03-27T01:23:35.307Z,992.18
2024-03-27T01:24:05.186Z,992.16
2024-03-27T01:24:37.000Z,992.14
2024-03-27T01:25:06.618Z,992.12
2024-03-27T01:25:38.542Z,992.10
2024-03-27T01:26:09.348Z,992.07
2024-03-27T01:26:40.155Z,992.05
2024-03-27T01:27:11.313Z,992.03
2024-03-27T01:27:41.768Z,992.01
2024-03-27T01:28:12.689Z,992.00
2024-03-27T01:28:42.225Z,991.98
2024-03-27T01:29:13.081Z,991.98
2024-03-27T01:29:45.058Z,991.97
2024-03-27T01:30:15.986Z,991.97
2024-03-27T01:30:46.893Z,991.97
2024-03-27T01:31:17.809Z,991.97
2024-03-27T01:31:48.730Z,991.97
2024-03-27T01:32:19.568Z,991.96
2024-03-27T01:32:50.494Z,991.97
2024-03-27T01:33:21.425Z,991.98
2024-03-27T01:33:51.035Z,991.98
2024-03-27T01:34:22.983Z,991.98
2024-03-27T01:34:53.915Z,991.98
2024-03-27T01:35:24.804Z,991.98
2024-03-27T01:35:55.781Z,991.98
2024-03-27T01:36:25.408Z,991.98
2024-03-27T01:36:57.313Z,991.98
2024-03-27T01:37:28.238Z,991.97
2024-03-27T01:37:59.155Z,991.96
2024-03-27T01:38:30.113Z,991.95
2024-03-27T01:39:01.223Z,991.92
2024-03-27T01:39:31.655Z,991.91
2024-03-27T01:40:02.133Z,991.89
2024-03-27T01:40:33.050Z,991.88
2024-03-27T01:41:02.606Z,991.87
2024-03-27T01:41:34.531Z,991.86
2024-03-27T01:42:05.438Z,991.86
2024-03-27T01:42:36.347Z,991.85
2024-03-27T01:43:07.268Z,991.83
2024-03-27T01:43:38.186Z,991.81
2024-03-27T01:44:07.831Z,991.80
2024-03-27T01:44:38.444Z,991.78
2024-03-27T01:45:10.352Z,991.75
2024-03-27T01:45:41.256Z,991.73
2024-03-27T01:46:12.186Z,991.71
2024-03-27T01:46:43.099Z,991.68
2024-03-27T01:47:12.629Z,991.66
2024-03-27T01:47:44.572Z,991.63
2024-03-27T01:48:15.364Z,991.61
2024-03-27T01:48:44.875Z,991.59
2024-03-27T01:49:16.786Z,991.58
2024-03-27T01:49:47.584Z,991.57
2024-03-27T01:50:18.513Z,991.57
2024-03-27T01:50:49.478Z,991.57
2024-03-27T01:51:20.567Z,991.57
2024-03-27T01:51:51.229Z,991.57
2024-03-27T01:52:22.301Z,991.58
2024-03-27T01:52:52.818Z,991.59
2024-03-27T01:53:23.394Z,991.60
2024-03-27T01:53:53.826Z,991.59
2024-03-27T01:54:24.878Z,991.59
2024-03-27T01:54:55.551Z,991.58
2024-03-27T01:55:25.567Z,991.57
2024-03-27T01:55:56.985Z,991.55
2024-03-27T01:56:28.005Z,991.54
2024-03-27T01:56:58.993Z,991.52
2024-03-27T01:57:28.675Z,991.50
2024-03-27T01:58:00.613Z,991.48
2024-03-27T01:58:31.389Z,991.47
2024-03-27T01:59:02.332Z,991.45
2024-03-27T01:59:33.348Z,991.43
2024-03-27T02:00:04.049Z,991.40
2024-03-27T02:00:33.751Z,991.38
2024-03-27T02:01:05.213Z,991.36
2024-03-27T02:01:36.139Z,991.35
2024-03-27T02:02:06.945Z,991.32
2024-03-27T02:02:36.505Z,991.30
2024-03-27T02:03:08.425Z,991.29
2024-03-27T02:03:39.436Z,991.28
2024-03-27T02:04:09.853Z,991.27
2024-03-27T02:04:40.770Z,991.27
2024-03-27T02:05:11.709Z,991.26
2024-03-27T02:05:41.239Z,991.25
2024-03-27T02:06:13.103Z,991.23
2024-03-27T02:06:42.733Z,991.21
2024-03-27T02:07:13.338Z,991.19
2024-03-27T02:07:44.766Z,991.18
2024-03-27T02:08:14.305Z,991.16
2024-03-27T02:08:46.228Z,991.14
2024-03-27T02:09:17.221Z,991.12
2024-03-27T02:09:46.845Z,991.11
2024-03-27T02:10:18.805Z,991.10
2024-03-27T02:10:49.712Z,991.08
2024-03-27T02:11:19.229Z,991.07
2024-03-27T02:11:51.195Z,991.07
2024-03-27T02:12:22.144Z,991.06
2024-03-27T02:12:53.056Z,991.05
2024-03-27T02:13:24.005Z,991.04
2024-03-27T02:13:55.157Z,991.01
2024-03-27T02:14:25.572Z,990.99
2024-03-27T02:14:56.527Z,990.97
2024-03-27T02:15:27.443Z,990.95
2024-03-27T02:15:58.363Z,990.95
2024-03-27T02:16:29.296Z,990.94
2024-03-27T02:17:09.139Z,990.94
2024-03-27T02:17:31.140Z,990.94
2024-03-27T02:18:01.639Z,990.94
2024-03-27T02:18:34.835Z,990.94
2024-03-27T02:19:03.367Z,990.94
2024-03-27T02:19:34.386Z,990.95
2024-03-27T02:20:04.854Z,990.96
2024-03-27T02:20:35.788Z,990.96
2024-03-27T02:21:06.713Z,990.96
2024-03-27T02:21:37.621Z,990.96
2024-03-27T02:22:08.594Z,990.96
2024-03-27T02:22:39.486Z,990.97
2024-03-27T02:23:10.394Z,990.96
2024-03-27T02:23:41.283Z,990.96
2024-03-27T02:24:12.175Z,990.95
2024-03-27T02:24:43.083Z,990.95
2024-03-27T02:25:14.042Z,990.94
2024-03-27T02:25:44.964Z,990.94
2024-03-27T02:26:45.599Z,990.95
2024-03-27T02:27:17.507Z,990.97
2024-03-27T02:27:48.417Z,990.98
2024-03-27T02:28:19.345Z,991.00
2024-03-27T02:28:50.293Z,991.02
2024-03-27T02:29:21.194Z,991.02
2024-03-27T02:29:52.117Z,991.03
2024-03-27T02:30:23.049Z,991.05
2024-03-27T02:31:24.881Z,991.08
2024-03-27T02:31:55.818Z,991.09
2024-03-27T02:32:26.768Z,991.09
2024-03-27T02:32:57.694Z,991.08
2024-03-27T02:33:28.705Z,991.08
2024-03-27T02:33:59.138Z,991.08
2024-03-27T02:34:28.659Z,991.07
2024-03-27T02:35:00.597Z,991.06
2024-03-27T02:35:31.509Z,991.05
2024-03-27T02:36:02.421Z,991.04
2024-03-27T02:36:33.261Z,991.02
2024-03-27T02:37:04.185Z,991.01
2024-03-27T02:37:35.108Z,991.01
2024-03-27T02:38:06.010Z,991.00
2024-03-27T02:38:36.957Z,991.00
2024-03-27T02:39:07.896Z,990.99
2024-03-27T02:39:38.784Z,990.98
2024-03-27T02:40:09.701Z,990.97
2024-03-27T02:40:40.626Z,990.97
2024-03-27T02:41:11.516Z,990.98
2024-03-27T02:41:42.430Z,990.98
2024-03-27T02:42:13.324Z,990.99
2024-03-27T02:42:42.948Z,991.00
2024-03-27T02:43:13.565Z,991.01
2024-03-27T02:44:16.424Z,991.03
2024-03-27T02:44:47.363Z,991.04
2024-03-27T02:45:18.279Z,991.03
2024-03-27T02:45:49.172Z,991.03
2024-03-27T02:46:20.078Z,991.03
2024-03-27T02:46:50.980Z,991.03
2024-03-27T02:47:21.871Z,991.03
2024-03-27T02:47:52.981Z,991.04
2024-03-27T02:48:23.378Z,991.04
2024-03-27T02:48:54.283Z,991.05
2024-03-27T02:49:24.179Z,991.05
2024-03-27T02:49:56.090Z,991.06
2024-03-27T02:50:27.020Z,991.06
2024-03-27T02:50:57.950Z,991.06
2024-03-27T02:51:28.862Z,991.07
2024-03-27T02:51:59.782Z,991.07
2024-03-27T02:52:30.683Z,991.09
2024-03-27T02:53:01.623Z,991.11
2024-03-27T02:53:32.525Z,991.12
2024-03-27T02:54:03.436Z,991.13
2024-03-27T02:54:34.381Z,991.14
2024-03-27T02:55:05.343Z,991.14
2024-03-27T02:55:36.259Z,991.14
2024-03-27T02:56:07.175Z,991.12
2024-03-27T02:56:38.108Z,991.10
2024-03-27T02:57:09.046Z,991.07
2024-03-27T02:57:39.935Z,991.05
2024-03-27T02:58:10.923Z,991.02
2024-03-27T02:58:41.823Z,991.00
2024-03-27T02:59:12.749Z,990.99
2024-03-27T02:59:43.562Z,990.98
2024-03-27T03:00:14.479Z,990.97
2024-03-27T03:00:45.394Z,990.97
2024-03-27T03:01:47.267Z,990.98
2024-03-27T03:02:18.182Z,990.99
2024-03-27T03:02:49.122Z,991.01
2024-03-27T03:03:20.021Z,991.01
2024-03-27T03:03:52.409Z,991.02
2024-03-27T03:04:21.797Z,991.02
2024-03-27T03:04:51.307Z,991.02
2024-03-27T03:05:21.833Z,991.02
2024-03-27T03:05:53.759Z,991.01
2024-03-27T03:06:24.672Z,991.00
2024-03-27T03:06:55.646Z,991.00
2024-03-27T03:07:26.541Z,990.99
2024-03-27T03:07:57.349Z,990.98
2024-03-27T03:08:28.295Z,990.97
2024-03-27T03:08:59.212Z,990.95
2024-03-27T03:09:28.726Z,990.94
2024-03-27T03:10:00.784Z,990.93
2024-03-27T03:10:31.269Z,990.92
2024-03-27T03:11:02.208Z,990.91
2024-03-27T03:11:33.116Z,990.90
2024-03-27T03:12:04.042Z,990.89
2024-03-27T03:12:34.972Z,990.88
2024-03-27T03:13:05.924Z,990.89
2024-03-27T03:13:36.851Z,990.89
2024-03-27T03:14:38.648Z,990.90
2024-03-27T03:15:09.607Z,990.90
2024-03-27T03:15:40.586Z,990.90
2024-03-27T03:16:11.040Z,990.91
2024-03-27T03:16:41.955Z,990.91
2024-03-27T03:17:12.878Z,990.92
2024-03-27T03:17:43.791Z,990.92
2024-03-27T03:18:14.719Z,990.92
2024-03-27T03:18:45.636Z,990.91
2024-03-27T03:19:16.547Z,990.89
2024-03-27T03:19:47.440Z,990.88
2024-03-27T03:20:18.354Z,990.87
2024-03-27T03:20:49.264Z,990.87
2024-03-27T03:21:20.177Z,990.87
2024-03-27T03:21:51.082Z,990.86
2024-03-27T03:22:21.980Z,990.84
2024-03-27T03:22:52.940Z,990.83
2024-03-27T03:23:23.858Z,990.82
2024-03-27T03:23:54.810Z,990.81
2024-03-27T03:24:25.764Z,990.80
2024-03-27T03:24:56.674Z,990.79
2024-03-27T03:25:27.588Z,990.78
2024-03-27T03:25:58.556Z,990.79
2024-03-27T03:26:29.473Z,990.79
2024-03-27T03:26:59.021Z,990.78
2024-03-27T03:27:30.940Z,990.77
2024-03-27T03:28:01.848Z,990.77
2024-03-27T03:28:32.778Z,990.77
2024-03-27T03:29:02.574Z,990.76
2024-03-27T03:29:33.208Z,990.76
2024-03-27T03:30:05.141Z,990.77
2024-03-27T03:30:36.094Z,990.78
2024-03-27T03:31:06.882Z,990.80
2024-03-27T03:31:37.811Z,990.81
2024-03-27T03:32:08.943Z,990.82
2024-03-27T03:32:39.361Z,990.82
2024-03-27T03:33:10.328Z,990.82
2024-03-27T03:33:41.247Z,990.82
2024-03-27T03:34:12.402Z,990.84
2024-03-27T03:34:42.823Z,990.85
2024-03-27T03:35:13.785Z,990.86
2024-03-27T03:35:43.345Z,990.86
2024-03-27T03:36:15.250Z,990.86
2024-03-27T03:36:46.180Z,990.85
2024-03-27T03:37:15.746Z,990.85
2024-03-27T03:37:47.665Z,990.83
2024-03-27T03:38:18.605Z,990.82
2024-03-27T03:38:49.527Z,990.80
2024-03-27T03:39:20.433Z,990.77
2024-03-27T03:39:51.366Z,990.75
2024-03-27T03:40:22.294Z,990.72
2024-03-27T03:40:53.207Z,990.70
2024-03-27T03:41:24.144Z,990.68
2024-03-27T03:41:55.039Z,990.65
2024-03-27T03:42:25.956Z,990.63
2024-03-27T03:42:56.900Z,990.61
2024-03-27T03:43:28.044Z,990.60
2024-03-27T03:43:57.657Z,990.61
2024-03-27T03:45:00.513Z,990.62
2024-03-27T03:45:30.167Z,990.62
2024-03-27T03:46:00.722Z,990.63
2024-03-27T03:46:32.842Z,990.63
2024-03-27T03:47:02.471Z,990.64
2024-03-27T03:47:34.396Z,990.65
2024-03-27T03:48:05.322Z,990.65
2024-03-27T03:48:36.243Z,990.66
2024-03-27T03:49:07.172Z,990.67
2024-03-27T03:49:38.089Z,990.68
2024-03-27T03:50:07.695Z,990.68
2024-03-27T03:50:39.668Z,990.68
2024-03-27T03:51:09.296Z,990.67
2024-03-27T03:51:39.923Z,990.67
2024-03-27T03:52:11.913Z,990.67
2024-03-27T03:52:42.811Z,990.68
2024-03-27T03:53:13.785Z,990.69
2024-03-27T03:53:44.712Z,990.70
2024-03-27T03:54:15.632Z,990.69
2024-03-27T03:54:46.556Z,990.67
2024-03-27T03:55:17.481Z,990.66
2024-03-27T03:55:48.399Z,990.65
2024-03-27T03:56:19.303Z,990.63
2024-03-27T03:56:48.920Z,990.61
2024-03-27T03:57:19.484Z,990.58
2024-03-27T03:57:51.395Z,990.56
2024-03-27T03:58:22.316Z,990.53
2024-03-27T03:58:53.136Z,990.49
2024-03-27T03:59:22.673Z,990.46
2024-03-27T03:59:54.595Z,990.42
2024-03-27T04:00:24.244Z,990.40
2024-03-27T04:00:56.159Z,990.40
2024-03-27T04:01:27.059Z,990.41
2024-03-27T04:01:56.591Z,990.42
2024-03-27T04:02:28.518Z,990.42
2024-03-27T04:02:58.034Z,990.42
2024-03-27T04:03:30.057Z,990.43
2024-03-27T04:03:59.626Z,990.43
2024-03-27T04:04:31.544Z,990.42
2024-03-27T04:05:02.365Z,990.41
2024-03-27T04:05:31.953Z,990.40
2024-03-27T04:06:03.866Z,990.39
2024-03-27T04:06:34.993Z,990.37
2024-03-27T04:07:04.568Z,990.34
2024-03-27T04:07:36.478Z,990.32
2024-03-27T04:08:07.285Z,990.31
2024-03-27T04:08:38.204Z,990.30
2024-03-27T04:09:09.359Z,990.28
2024-03-27T04:09:38.982Z,990.26
2024-03-27T04:10:41.748Z,990.25
2024-03-27T04:11:12.689Z,990.25
2024-03-27T04:11:43.597Z,990.25
2024-03-27T04:12:14.403Z,990.25
2024-03-27T04:12:45.333Z,990.25
2024-03-27T04:13:16.299Z,990.23
2024-03-27T04:13:47.202Z,990.22
2024-03-27T04:14:18.121Z,990.21
2024-03-27T04:14:47.656Z,990.18
2024-03-27T04:15:19.617Z,990.15
2024-03-27T04:15:50.514Z,990.11
2024-03-27T04:16:21.539Z,990.08
2024-03-27T04:16:51.167Z,990.05
2024-03-27T04:17:23.133Z,990.03
2024-03-27T04:17:54.045Z,990.01
2024-03-27T04:18:24.971Z,989.99
2024-03-27T04:18:54.593Z,989.97
2024-03-27T04:19:25.286Z,989.95
2024-03-27T04:19:57.409Z,989.93
2024-03-27T04:20:26.943Z,989.92
2024-03-27T04:20:58.864Z,989.90
2024-03-27T04:21:29.789Z,989.88
2024-03-27T04:21:59.435Z,989.86
2024-03-27T04:22:30.072Z,989.84
2024-03-27T04:23:32.800Z,989.81
2024-03-27T04:24:02.317Z,989.80
2024-03-27T04:24:34.290Z,989.79
2024-03-27T04:25:03.839Z,989.78
2024-03-27T04:25:49.394Z,989.78
2024-03-27T04:26:07.119Z,989.78
2024-03-27T04:26:37.583Z,989.78
2024-03-27T04:27:07.139Z,989.77
2024-03-27T04:27:39.126Z,989.77
2024-03-27T04:28:10.033Z,989.77
2024-03-27T04:28:39.535Z,989.77
2024-03-27T04:29:11.459Z,989.77
2024-03-27T04:29:42.404Z,989.76
2024-03-27T04:30:13.347Z,989.75
2024-03-27T04:30:44.274Z,989.75
2024-03-27T04:31:13.882Z,989.75
2024-03-27T04:31:45.787Z,989.76
2024-03-27T04:32:16.688Z,989.76
2024-03-27T04:32:47.617Z,989.75
2024-03-27T04:33:18.564Z,989.74
2024-03-27T04:33:49.347Z,989.72
2024-03-27T04:34:19.161Z,989.71
2024-03-27T04:34:50.582Z,989.69
2024-03-27T04:35:21.379Z,989.67
2024-03-27T04:35:52.180Z,989.66
2024-03-27T04:36:23.099Z,989.65
2024-03-27T04:36:52.706Z,989.64
2024-03-27T04:37:24.628Z,989.63
2024-03-27T04:37:55.544Z,989.62
2024-03-27T04:38:26.499Z,989.60
2024-03-27T04:38:57.408Z,989.57
2024-03-27T04:39:28.331Z,989.56
2024-03-27T04:39:59.141Z,989.55
2024-03-27T04:40:30.051Z,989.56
2024-03-27T04:41:00.983Z,989.56
2024-03-27T04:41:31.873Z,989.55
2024-03-27T04:42:02.788Z,989.53
2024-03-27T04:42:32.451Z,989.52
2024-03-27T04:43:02.986Z,989.52
2024-03-27T04:43:34.862Z,989.53
2024-03-27T04:44:36.574Z,989.54
2024-03-27T04:45:07.479Z,989.55
2024-03-27T04:45:38.373Z,989.55
2024-03-27T04:46:09.235Z,989.53
2024-03-27T04:46:40.124Z,989.52
2024-03-27T04:47:10.880Z,989.51
2024-03-27T04:47:41.800Z,989.50
2024-03-27T04:48:12.696Z,989.51
2024-03-27T04:49:14.324Z,989.51
2024-03-27T04:49:45.214Z,989.50
2024-03-27T04:50:16.064Z,989.48
2024-03-27T04:50:46.941Z,989.48
2024-03-27T04:51:17.793Z,989.47
2024-03-27T04:51:48.661Z,989.47
2024-03-27T04:52:18.438Z,989.45
2024-03-27T04:52:50.297Z,989.43
2024-03-27T04:53:21.163Z,989.43
2024-03-27T04:53:52.056Z,989.42
2024-03-27T04:54:25.107Z,989.39
2024-03-27T04:54:53.586Z,989.37
2024-03-27T04:55:24.454Z,989.37
2024-03-27T04:55:55.322Z,989.35
2024-03-27T04:56:24.924Z,989.33
2024-03-27T04:56:56.814Z,989.32
2024-03-27T04:57:27.699Z,989.30
2024-03-27T04:57:58.562Z,989.28
2024-03-27T04:58:29.438Z,989.25
2024-03-27T04:59:00.420Z,989.24
2024-03-27T04:59:30.891Z,989.22
2024-03-27T05:00:01.758Z,989.19
2024-03-27T05:00:32.722Z,989.16
2024-03-27T05:01:03.394Z,989.14
2024-03-27T05:02:05.115Z,989.09
2024-03-27T05:02:35.973Z,989.06
2024-03-27T05:03:06.735Z,989.06
2024-03-27T05:03:37.707Z,989.06
2024-03-27T05:04:08.588Z,989.05
2024-03-27T05:04:38.170Z,989.06
2024-03-27T05:05:10.041Z,989.06
2024-03-27T05:05:40.951Z,989.07
2024-03-27T05:06:11.827Z,989.06
2024-03-27T05:06:42.588Z,989.06
2024-03-27T05:07:13.452Z,989.05
2024-03-27T05:07:44.308Z,989.04
2024-03-27T05:08:15.197Z,989.02
2024-03-27T05:08:46.065Z,989.00
2024-03-27T05:09:16.934Z,989.00
2024-03-27T05:09:47.806Z,988.99
2024-03-27T05:10:17.379Z,988.99
2024-03-27T05:10:49.287Z,989.00
2024-03-27T05:11:22.992Z,988.99
2024-03-27T05:11:50.960Z,988.99
2024-03-27T05:12:21.853Z,989.00
2024-03-27T05:12:52.725Z,989.01
2024-03-27T05:13:23.584Z,988.99
2024-03-27T05:13:54.460Z,988.98
2024-03-27T05:14:56.231Z,988.94
2024-03-27T05:15:27.079Z,988.95
2024-03-27T05:15:57.981Z,988.94
2024-03-27T05:16:28.698Z,988.93
2024-03-27T05:16:59.574Z,988.93
2024-03-27T05:17:30.481Z,988.94
2024-03-27T05:18:00.216Z,988.94
2024-03-27T05:18:31.586Z,988.95
2024-03-27T05:19:02.448Z,988.95
2024-03-27T05:19:33.299Z,988.96
2024-03-27T05:20:04.186Z,988.97
2024-03-27T05:20:35.064Z,988.97
2024-03-27T05:21:05.927Z,988.96
2024-03-27T05:21:36.837Z,988.95
2024-03-27T05:22:07.704Z,988.95
2024-03-27T05:22:38.548Z,988.94
2024-03-27T05:23:11.128Z,988.94
2024-03-27T05:23:40.096Z,988.94
2024-03-27T05:24:11.037Z,988.94
2024-03-27T05:24:41.927Z,988.94
2024-03-27T05:25:12.788Z,988.94
2024-03-27T05:25:43.640Z,988.94
2024-03-27T05:26:14.491Z,988.95
2024-03-27T05:26:45.370Z,988.96
2024-03-27T05:27:15.365Z,988.96
2024-03-27T05:27:47.227Z,988.95
2024-03-27T05:28:18.118Z,988.94
2024-03-27T05:28:48.959Z,988.92
2024-03-27T05:29:19.841Z,988.91
2024-03-27T05:29:50.591Z,988.90
2024-03-27T05:30:21.464Z,988.89
2024-03-27T05:30:52.340Z,988.87
2024-03-27T05:31:23.210Z,988.86
2024-03-27T05:31:54.085Z,988.87
2024-03-27T05:32:24.940Z,988.88
2024-03-27T05:32:55.802Z,988.90
2024-03-27T05:33:26.657Z,988.90
2024-03-27T05:33:57.518Z,988.91
2024-03-27T05:34:28.364Z,988.91
2024-03-27T05:34:59.240Z,988.93
2024-03-27T05:35:33.180Z,988.93
2024-03-27T05:36:10.828Z,988.95
2024-03-27T05:36:31.362Z,988.96
2024-03-27T05:37:02.231Z,988.98
2024-03-27T05:37:33.079Z,989.03
2024-03-27T05:38:03.924Z,989.07
2024-03-27T05:38:34.772Z,989.08
2024-03-27T05:39:05.632Z,989.10
2024-03-27T05:39:36.533Z,989.12
2024-03-27T05:40:38.245Z,989.12
2024-03-27T05:41:09.092Z,989.12
2024-03-27T05:41:38.697Z,989.14
2024-03-27T05:42:10.552Z,989.15
2024-03-27T05:42:41.446Z,989.14
2024-03-27T05:43:12.318Z,989.14
2024-03-27T05:43:43.248Z,989.15
2024-03-27T05:44:14.116Z,989.16
2024-03-27T05:44:44.968Z,989.17
2024-03-27T05:45:15.846Z,989.18
2024-03-27T05:45:46.714Z,989.19
2024-03-27T05:46:17.599Z,989.19
2024-03-27T05:46:48.459Z,989.18
2024-03-27T05:47:19.339Z,989.18
2024-03-27T05:47:50.203Z,989.18
2024-03-27T05:48:21.099Z,989.17
2024-03-27T05:48:51.977Z,989.16
2024-03-27T05:49:22.894Z,989.14
2024-03-27T05:49:53.614Z,989.13
2024-03-27T05:50:24.469Z,989.12
2024-03-27T05:50:55.342Z,989.11
2024-03-27T05:51:26.194Z,989.10
2024-03-27T05:51:56.951Z,989.09
2024-03-27T05:52:28.048Z,989.06
2024-03-27T05:53:59.823Z,988.97
2024-03-27T05:54:30.687Z,988.97
2024-03-27T05:55:01.555Z,988.96
2024-03-27T05:55:32.458Z,988.94
2024-03-27T05:56:03.300Z,988.93
2024-03-27T05:56:34.167Z,988.93
2024-03-27T05:57:05.021Z,988.93
2024-03-27T05:57:35.893Z,988.95
2024-03-27T05:58:09.220Z,988.97
2024-03-27T05:58:37.583Z,988.99
2024-03-27T05:59:08.455Z,989.02
2024-03-27T05:59:39.315Z,989.05
2024-03-27T06:00:10.076Z,989.07
2024-03-27T06:00:40.968Z,989.09
2024-03-27T06:01:11.830Z,989.09
2024-03-27T06:01:42.671Z,989.09
2024-03-27T06:02:13.523Z,989.09
2024-03-27T06:02:43.344Z,989.10
2024-03-27T06:03:15.539Z,989.12
2024-03-27T06:03:45.883Z,989.15
2024-03-27T06:04:16.728Z,989.16
2024-03-27T06:04:47.627Z,989.17
2024-03-27T06:05:17.190Z,989.17
2024-03-27T06:05:49.060Z,989.16
2024-03-27T06:06:19.933Z,989.13
2024-03-27T06:06:50.829Z,989.09
2024-03-27T06:07:21.689Z,989.06
2024-03-27T06:07:52.651Z,989.02
2024-03-27T06:08:23.529Z,989.00
2024-03-27T06:08:54.412Z,988.99
2024-03-27T06:09:24.407Z,988.98
2024-03-27T06:09:56.288Z,988.97
2024-03-27T06:10:27.166Z,988.97
2024-03-27T06:10:57.945Z,988.98
2024-03-27T06:11:28.840Z,989.00
2024-03-27T06:11:59.722Z,989.01
2024-03-27T06:12:30.722Z,989.01
2024-03-27T06:13:01.586Z,989.01
2024-03-27T06:13:32.483Z,989.02
2024-03-27T06:14:03.339Z,989.02
2024-03-27T06:14:34.208Z,989.02
2024-03-27T06:15:05.077Z,989.02
2024-03-27T06:16:06.776Z,988.98
2024-03-27T06:16:37.652Z,988.94
2024-03-27T06:17:08.507Z,988.92
2024-03-27T06:17:38.481Z,988.90
2024-03-27T06:18:10.358Z,988.89
2024-03-27T06:18:41.235Z,988.90
2024-03-27T06:19:12.109Z,988.90
2024-03-27T06:19:42.998Z,988.89
2024-03-27T06:20:13.875Z,988.88
2024-03-27T06:20:44.772Z,988.88
2024-03-27T06:21:16.215Z,988.88
2024-03-27T06:21:46.273Z,988.90
2024-03-27T06:22:17.163Z,988.91
2024-03-27T06:22:47.896Z,988.90
2024-03-27T06:23:18.759Z,988.89
2024-03-27T06:23:49.690Z,988.87
2024-03-27T06:24:20.454Z,988.84
2024-03-27T06:24:51.580Z,988.82
2024-03-27T06:25:21.919Z,988.80
2024-03-27T06:25:52.836Z,988.80
2024-03-27T06:26:22.336Z,988.81
2024-03-27T06:26:57.450Z,988.82
2024-03-27T06:27:25.071Z,988.83
2024-03-27T06:27:55.966Z,988.85
2024-03-27T06:28:26.836Z,988.88
2024-03-27T06:28:57.713Z,988.90
2024-03-27T06:29:28.603Z,988.91
2024-03-27T06:29:59.463Z,988.93
2024-03-27T06:30:30.334Z,988.92
2024-03-27T06:30:59.891Z,988.90
2024-03-27T06:31:31.751Z,988.88
2024-03-27T06:32:02.630Z,988.85
2024-03-27T06:32:33.484Z,988.85
2024-03-27T06:33:04.371Z,988.85
2024-03-27T06:33:35.261Z,988.86
2024-03-27T06:34:06.341Z,988.85
2024-03-27T06:34:36.710Z,988.86
2024-03-27T06:35:07.635Z,988.85